sensor_id;sensor_type;location;lat;lon;timestamp;P1;durP1;ratioP1;P2;durP2;ratioP2
28427;SDS011;15662;49.128;8.520;2023-05-10T00:01:11;0.50;;;0.50;;
28427;SDS011;15662;49.128;8.520;2023-05-10T00:03:39;0.60;;;0.40;;
28427;SDS011;15662;49.128;8.520;2023-05-10T00:06:07;0.50;;;0.50;;
28427;SDS011;15662;49.128;8.520;2023-05-10T00:08:35;0.50;;;0.50;;
28427;SDS011;15662;49.128;8.520;2023-05-10T00:11:03;0.50;;;0.50;;
28427;SDS011;15662;49.128;8.520;2023-05-10T00:13:31;0.50;;;0.40;;
28427;SDS011;15662;49.128;8.520;2023-05-10T00:15:59;0.50;;;0.50;;
28427;SDS011;15662;49.128;8.520;2023-05-10T00:18:27;0.50;;;0.50;;
28427;SDS011;15662;49.128;8.520;2023-05-10T00:20:55;2.33;;;0.60;;
28427;SDS011;15662;49.128;8.520;2023-05-10T00:23:22;0.43;;;0.43;;
28427;SDS011;15662;49.128;8.520;2023-05-10T00:25:50;1.52;;;0.45;;
28427;SDS011;15662;49.128;8.520;2023-05-10T00:28:18;0.40;;;0.40;;
28427;SDS011;15662;49.128;8.520;2023-05-10T00:30:46;0.40;;;0.40;;
28427;SDS011;15662;49.128;8.520;2023-05-10T00:33:14;0.40;;;0.40;;
28427;SDS011;15662;49.128;8.520;2023-05-10T00:35:41;0.43;;;0.40;;
28427;SDS011;15662;49.128;8.520;2023-05-10T00:38:09;0.32;;;0.32;;
28427;SDS011;15662;49.128;8.520;2023-05-10T00:40:37;1.17;;;0.40;;
28427;SDS011;15662;49.128;8.520;2023-05-10T00:43:10;0.40;;;0.40;;
28427;SDS011;15662;49.128;8.520;2023-05-10T00:45:38;0.40;;;0.40;;
28427;SDS011;15662;49.128;8.520;2023-05-10T00:48:08;0.82;;;0.40;;
28427;SDS011;15662;49.128;8.520;2023-05-10T00:50:36;0.40;;;0.40;;
28427;SDS011;15662;49.128;8.520;2023-05-10T00:53:07;0.50;;;0.50;;
28427;SDS011;15662;49.128;8.520;2023-05-10T00:55:35;2.15;;;0.50;;
28427;SDS011;15662;49.128;8.520;2023-05-10T00:58:04;0.50;;;0.50;;
28427;SDS011;15662;49.128;8.520;2023-05-10T01:00:33;0.40;;;0.40;;
28427;SDS011;15662;49.128;8.520;2023-05-10T01:03:02;0.50;;;0.50;;
28427;SDS011;15662;49.128;8.520;2023-05-10T01:05:30;0.60;;;0.40;;
28427;SDS011;15662;49.128;8.520;2023-05-10T01:07:58;0.73;;;0.43;;
28427;SDS011;15662;49.128;8.520;2023-05-10T01:10:26;1.00;;;0.40;;
28427;SDS011;15662;49.128;8.520;2023-05-10T01:12:54;0.85;;;0.50;;
28427;SDS011;15662;49.128;8.520;2023-05-10T01:15:22;0.75;;;0.63;;
28427;SDS011;15662;49.128;8.520;2023-05-10T01:17:50;1.45;;;0.70;;
28427;SDS011;15662;49.128;8.520;2023-05-10T01:20:19;0.73;;;0.60;;
28427;SDS011;15662;49.128;8.520;2023-05-10T01:39:10;1.05;;;0.70;;
28427;SDS011;15662;49.128;8.520;2023-05-10T01:44:42;0.50;;;0.50;;
28427;SDS011;15662;49.128;8.520;2023-05-10T01:47:27;0.50;;;0.40;;
28427;SDS011;15662;49.128;8.520;2023-05-10T01:50:04;0.40;;;0.40;;
28427;SDS011;15662;49.128;8.520;2023-05-10T01:52:45;1.08;;;0.55;;
28427;SDS011;15662;49.128;8.520;2023-05-10T01:55:23;0.40;;;0.40;;
28427;SDS011;15662;49.128;8.520;2023-05-10T01:58:07;0.98;;;0.40;;
28427;SDS011;15662;49.128;8.520;2023-05-10T02:00:40;0.82;;;0.47;;
28427;SDS011;15662;49.128;8.520;2023-05-10T02:03:11;0.57;;;0.45;;
28427;SDS011;15662;49.128;8.520;2023-05-10T02:05:42;0.40;;;0.40;;
28427;SDS011;15662;49.128;8.520;2023-05-10T02:08:12;0.60;;;0.40;;
28427;SDS011;15662;49.128;8.520;2023-05-10T02:10:42;0.38;;;0.38;;
28427;SDS011;15662;49.128;8.520;2023-05-10T02:13:11;0.68;;;0.68;;
28427;SDS011;15662;49.128;8.520;2023-05-10T02:15:42;0.85;;;0.50;;
28427;SDS011;15662;49.128;8.520;2023-05-10T02:20:43;0.55;;;0.55;;
28427;SDS011;15662;49.128;8.520;2023-05-10T02:23:15;2.17;;;0.52;;
28427;SDS011;15662;49.128;8.520;2023-05-10T02:25:45;0.68;;;0.60;;
28427;SDS011;15662;49.128;8.520;2023-05-10T02:28:15;0.60;;;0.60;;
28427;SDS011;15662;49.128;8.520;2023-05-10T02:30:45;0.68;;;0.50;;
28427;SDS011;15662;49.128;8.520;2023-05-10T02:33:14;0.50;;;0.50;;
28427;SDS011;15662;49.128;8.520;2023-05-10T02:35:43;2.08;;;0.50;;
28427;SDS011;15662;49.128;8.520;2023-05-10T02:38:11;0.60;;;0.60;;
28427;SDS011;15662;49.128;8.520;2023-05-10T02:40:41;0.65;;;0.65;;
28427;SDS011;15662;49.128;8.520;2023-05-10T02:43:12;0.80;;;0.80;;
28427;SDS011;15662;49.128;8.520;2023-05-10T02:45:42;0.98;;;0.85;;
28427;SDS011;15662;49.128;8.520;2023-05-10T02:48:13;0.68;;;0.63;;
28427;SDS011;15662;49.128;8.520;2023-05-10T02:50:44;0.82;;;0.63;;
28427;SDS011;15662;49.128;8.520;2023-05-10T02:53:18;0.70;;;0.70;;
28427;SDS011;15662;49.128;8.520;2023-05-10T02:56:00;0.80;;;0.80;;
28427;SDS011;15662;49.128;8.520;2023-05-10T02:58:40;1.10;;;0.90;;
28427;SDS011;15662;49.128;8.520;2023-05-10T03:01:08;0.93;;;0.80;;
28427;SDS011;15662;49.128;8.520;2023-05-10T03:03:36;0.90;;;0.90;;
28427;SDS011;15662;49.128;8.520;2023-05-10T03:06:04;1.67;;;1.00;;
28427;SDS011;15662;49.128;8.520;2023-05-10T03:08:32;1.77;;;0.90;;
28427;SDS011;15662;49.128;8.520;2023-05-10T03:20:03;1.77;;;1.10;;
28427;SDS011;15662;49.128;8.520;2023-05-10T03:22:37;1.02;;;1.02;;
28427;SDS011;15662;49.128;8.520;2023-05-10T03:25:11;1.20;;;1.20;;
28427;SDS011;15662;49.128;8.520;2023-05-10T03:27:42;1.35;;;1.35;;
28427;SDS011;15662;49.128;8.520;2023-05-10T03:30:12;1.63;;;1.52;;
28427;SDS011;15662;49.128;8.520;2023-05-10T03:32:41;1.70;;;1.60;;
28427;SDS011;15662;49.128;8.520;2023-05-10T03:35:10;1.85;;;1.50;;
28427;SDS011;15662;49.128;8.520;2023-05-10T03:37:40;1.67;;;1.48;;
28427;SDS011;15662;49.128;8.520;2023-05-10T03:40:08;2.67;;;1.70;;
28427;SDS011;15662;49.128;8.520;2023-05-10T03:42:39;1.70;;;1.60;;
28427;SDS011;15662;49.128;8.520;2023-05-10T03:45:07;1.80;;;1.70;;
28427;SDS011;15662;49.128;8.520;2023-05-10T03:47:36;2.00;;;1.65;;
28427;SDS011;15662;49.128;8.520;2023-05-10T03:50:04;1.70;;;1.60;;
28427;SDS011;15662;49.128;8.520;2023-05-10T03:52:33;1.60;;;1.60;;
28427;SDS011;15662;49.128;8.520;2023-05-10T03:55:01;2.75;;;1.85;;
28427;SDS011;15662;49.128;8.520;2023-05-10T03:57:30;2.88;;;1.92;;
28427;SDS011;15662;49.128;8.520;2023-05-10T03:59:59;2.10;;;2.00;;
28427;SDS011;15662;49.128;8.520;2023-05-10T04:02:27;3.70;;;2.47;;
28427;SDS011;15662;49.128;8.520;2023-05-10T04:04:55;2.33;;;1.80;;
28427;SDS011;15662;49.128;8.520;2023-05-10T04:07:23;1.80;;;1.70;;
28427;SDS011;15662;49.128;8.520;2023-05-10T04:09:51;3.60;;;1.85;;
28427;SDS011;15662;49.128;8.520;2023-05-10T04:12:21;2.00;;;1.90;;
28427;SDS011;15662;49.128;8.520;2023-05-10T04:14:49;2.45;;;1.95;;
28427;SDS011;15662;49.128;8.520;2023-05-10T04:17:16;2.00;;;1.90;;
28427;SDS011;15662;49.128;8.520;2023-05-10T04:19:44;4.10;;;1.95;;
28427;SDS011;15662;49.128;8.520;2023-05-10T04:22:12;2.25;;;2.03;;
28427;SDS011;15662;49.128;8.520;2023-05-10T04:24:39;1.83;;;1.67;;
28427;SDS011;15662;49.128;8.520;2023-05-10T04:27:07;2.00;;;1.80;;
28427;SDS011;15662;49.128;8.520;2023-05-10T04:29:35;2.47;;;2.00;;
28427;SDS011;15662;49.128;8.520;2023-05-10T04:32:03;2.40;;;1.92;;
28427;SDS011;15662;49.128;8.520;2023-05-10T04:34:31;1.83;;;1.73;;
28427;SDS011;15662;49.128;8.520;2023-05-10T04:37:01;1.92;;;1.83;;
28427;SDS011;15662;49.128;8.520;2023-05-10T04:39:29;3.00;;;2.08;;
28427;SDS011;15662;49.128;8.520;2023-05-10T04:41:56;1.80;;;1.75;;
28427;SDS011;15662;49.128;8.520;2023-05-10T04:44:24;1.70;;;1.60;;
28427;SDS011;15662;49.128;8.520;2023-05-10T04:46:52;2.10;;;1.73;;
28427;SDS011;15662;49.128;8.520;2023-05-10T04:49:20;3.05;;;1.85;;
28427;SDS011;15662;49.128;8.520;2023-05-10T04:51:48;1.80;;;1.70;;
28427;SDS011;15662;49.128;8.520;2023-05-10T04:54:16;2.97;;;1.95;;
28427;SDS011;15662;49.128;8.520;2023-05-10T04:56:44;2.38;;;2.17;;
28427;SDS011;15662;49.128;8.520;2023-05-10T04:59:12;2.30;;;1.92;;
28427;SDS011;15662;49.128;8.520;2023-05-10T05:01:39;2.05;;;1.95;;
28427;SDS011;15662;49.128;8.520;2023-05-10T05:04:07;2.00;;;1.90;;
28427;SDS011;15662;49.128;8.520;2023-05-10T05:06:37;2.85;;;1.83;;
28427;SDS011;15662;49.128;8.520;2023-05-10T05:09:05;1.80;;;1.70;;
28427;SDS011;15662;49.128;8.520;2023-05-10T05:11:32;1.80;;;1.70;;
28427;SDS011;15662;49.128;8.520;2023-05-10T05:14:00;1.90;;;1.80;;
28427;SDS011;15662;49.128;8.520;2023-05-10T05:16:30;1.90;;;1.80;;
28427;SDS011;15662;49.128;8.520;2023-05-10T05:18:59;1.75;;;1.65;;
28427;SDS011;15662;49.128;8.520;2023-05-10T05:21:27;2.15;;;1.95;;
28427;SDS011;15662;49.128;8.520;2023-05-10T05:23:56;2.10;;;2.00;;
28427;SDS011;15662;49.128;8.520;2023-05-10T05:26:23;2.00;;;1.90;;
28427;SDS011;15662;49.128;8.520;2023-05-10T05:28:51;4.40;;;2.55;;
28427;SDS011;15662;49.128;8.520;2023-05-10T05:31:21;3.65;;;2.38;;
28427;SDS011;15662;49.128;8.520;2023-05-10T05:33:49;1.90;;;1.80;;
28427;SDS011;15662;49.128;8.520;2023-05-10T05:36:17;1.50;;;1.40;;
28427;SDS011;15662;49.128;8.520;2023-05-10T05:38:45;1.65;;;1.55;;
28427;SDS011;15662;49.128;8.520;2023-05-10T05:41:12;1.88;;;1.77;;
28427;SDS011;15662;49.128;8.520;2023-05-10T05:43:41;1.83;;;1.65;;
28427;SDS011;15662;49.128;8.520;2023-05-10T05:46:11;2.10;;;2.00;;
28427;SDS011;15662;49.128;8.520;2023-05-10T05:48:39;2.28;;;2.10;;
28427;SDS011;15662;49.128;8.520;2023-05-10T05:51:08;2.92;;;1.98;;
28427;SDS011;15662;49.128;8.520;2023-05-10T05:53:36;2.13;;;1.70;;
28427;SDS011;15662;49.128;8.520;2023-05-10T05:56:04;2.90;;;2.08;;
28427;SDS011;15662;49.128;8.520;2023-05-10T05:58:32;1.90;;;1.83;;
28427;SDS011;15662;49.128;8.520;2023-05-10T06:01:02;2.10;;;2.00;;
28427;SDS011;15662;49.128;8.520;2023-05-10T06:03:30;1.98;;;1.83;;
28427;SDS011;15662;49.128;8.520;2023-05-10T06:05:58;2.10;;;1.90;;
28427;SDS011;15662;49.128;8.520;2023-05-10T06:08:26;4.80;;;1.90;;
28427;SDS011;15662;49.128;8.520;2023-05-10T06:10:54;1.80;;;1.70;;
28427;SDS011;15662;49.128;8.520;2023-05-10T06:13:21;1.70;;;1.60;;
28427;SDS011;15662;49.128;8.520;2023-05-10T06:15:49;1.63;;;1.52;;
28427;SDS011;15662;49.128;8.520;2023-05-10T06:18:19;1.70;;;1.60;;
28427;SDS011;15662;49.128;8.520;2023-05-10T06:20:47;1.95;;;1.30;;
28427;SDS011;15662;49.128;8.520;2023-05-10T06:23:17;1.42;;;1.42;;
28427;SDS011;15662;49.128;8.520;2023-05-10T06:25:47;1.52;;;1.42;;
28427;SDS011;15662;49.128;8.520;2023-05-10T06:28:14;1.60;;;1.50;;
28427;SDS011;15662;49.128;8.520;2023-05-10T06:30:42;1.40;;;1.30;;
28427;SDS011;15662;49.128;8.520;2023-05-10T06:33:10;4.72;;;1.50;;
28427;SDS011;15662;49.128;8.520;2023-05-10T06:35:38;1.52;;;1.23;;
28427;SDS011;15662;49.128;8.520;2023-05-10T06:38:06;1.30;;;1.27;;
28427;SDS011;15662;49.128;8.520;2023-05-10T06:40:34;1.20;;;1.20;;
28427;SDS011;15662;49.128;8.520;2023-05-10T06:43:02;1.33;;;1.25;;
28427;SDS011;15662;49.128;8.520;2023-05-10T06:45:30;1.40;;;1.13;;
28427;SDS011;15662;49.128;8.520;2023-05-10T06:47:58;1.17;;;1.10;;
28427;SDS011;15662;49.128;8.520;2023-05-10T06:50:29;1.20;;;1.10;;
28427;SDS011;15662;49.128;8.520;2023-05-10T06:52:56;1.42;;;0.98;;
28427;SDS011;15662;49.128;8.520;2023-05-10T06:55:25;1.13;;;1.13;;
28427;SDS011;15662;49.128;8.520;2023-05-10T06:57:53;2.08;;;1.08;;
28427;SDS011;15662;49.128;8.520;2023-05-10T07:00:23;1.73;;;1.00;;
28427;SDS011;15662;49.128;8.520;2023-05-10T07:02:51;1.45;;;1.35;;
28427;SDS011;15662;49.128;8.520;2023-05-10T07:05:19;1.15;;;1.00;;
28427;SDS011;15662;49.128;8.520;2023-05-10T07:07:48;0.70;;;0.70;;
28427;SDS011;15662;49.128;8.520;2023-05-10T07:10:15;0.70;;;0.70;;
28427;SDS011;15662;49.128;8.520;2023-05-10T07:12:44;2.15;;;0.70;;
28427;SDS011;15662;49.128;8.520;2023-05-10T07:15:12;0.70;;;0.70;;
28427;SDS011;15662;49.128;8.520;2023-05-10T07:17:40;0.65;;;0.65;;
28427;SDS011;15662;49.128;8.520;2023-05-10T07:20:11;0.50;;;0.50;;
28427;SDS011;15662;49.128;8.520;2023-05-10T07:22:39;1.70;;;0.70;;
28427;SDS011;15662;49.128;8.520;2023-05-10T07:25:07;0.85;;;0.85;;
28427;SDS011;15662;49.128;8.520;2023-05-10T07:27:35;0.85;;;0.85;;
28427;SDS011;15662;49.128;8.520;2023-05-10T07:30:03;1.77;;;0.77;;
28427;SDS011;15662;49.128;8.520;2023-05-10T07:32:35;0.95;;;0.80;;
28427;SDS011;15662;49.128;8.520;2023-05-10T07:35:03;1.75;;;0.65;;
28427;SDS011;15662;49.128;8.520;2023-05-10T07:37:31;1.73;;;0.60;;
28427;SDS011;15662;49.128;8.520;2023-05-10T07:40:01;2.17;;;0.60;;
28427;SDS011;15662;49.128;8.520;2023-05-10T07:42:29;0.63;;;0.63;;
28427;SDS011;15662;49.128;8.520;2023-05-10T07:44:57;1.25;;;0.70;;
28427;SDS011;15662;49.128;8.520;2023-05-10T07:47:25;1.33;;;0.60;;
28427;SDS011;15662;49.128;8.520;2023-05-10T07:49:53;1.38;;;0.90;;
28427;SDS011;15662;49.128;8.520;2023-05-10T07:52:20;0.73;;;0.73;;
28427;SDS011;15662;49.128;8.520;2023-05-10T07:54:49;0.80;;;0.80;;
28427;SDS011;15662;49.128;8.520;2023-05-10T07:57:17;2.15;;;0.70;;
28427;SDS011;15662;49.128;8.520;2023-05-10T07:59:45;1.42;;;0.60;;
28427;SDS011;15662;49.128;8.520;2023-05-10T08:02:13;0.50;;;0.50;;
28427;SDS011;15662;49.128;8.520;2023-05-10T08:04:41;0.55;;;0.55;;
28427;SDS011;15662;49.128;8.520;2023-05-10T08:07:09;2.35;;;0.88;;
28427;SDS011;15662;49.128;8.520;2023-05-10T08:09:37;0.88;;;0.88;;
28427;SDS011;15662;49.128;8.520;2023-05-10T08:12:05;0.63;;;0.63;;
28427;SDS011;15662;49.128;8.520;2023-05-10T08:14:33;3.50;;;0.70;;
28427;SDS011;15662;49.128;8.520;2023-05-10T08:17:01;1.48;;;0.57;;
28427;SDS011;15662;49.128;8.520;2023-05-10T08:19:30;0.47;;;0.47;;
28427;SDS011;15662;49.128;8.520;2023-05-10T08:21:58;0.77;;;0.77;;
28427;SDS011;15662;49.128;8.520;2023-05-10T08:24:26;1.08;;;0.80;;
28427;SDS011;15662;49.128;8.520;2023-05-10T08:26:53;0.50;;;0.50;;
28427;SDS011;15662;49.128;8.520;2023-05-10T08:29:22;0.65;;;0.65;;
28427;SDS011;15662;49.128;8.520;2023-05-10T08:31:52;0.52;;;0.52;;
28427;SDS011;15662;49.128;8.520;2023-05-10T08:34:20;0.50;;;0.50;;
28427;SDS011;15662;49.128;8.520;2023-05-10T08:36:48;1.55;;;0.50;;
28427;SDS011;15662;49.128;8.520;2023-05-10T08:39:16;0.93;;;0.40;;
28427;SDS011;15662;49.128;8.520;2023-05-10T08:41:58;1.05;;;0.60;;
28427;SDS011;15662;49.128;8.520;2023-05-10T08:44:35;0.80;;;0.40;;
28427;SDS011;15662;49.128;8.520;2023-05-10T08:47:04;0.40;;;0.40;;
28427;SDS011;15662;49.128;8.520;2023-05-10T08:49:35;0.45;;;0.45;;
28427;SDS011;15662;49.128;8.520;2023-05-10T08:52:04;0.60;;;0.60;;
28427;SDS011;15662;49.128;8.520;2023-05-10T08:54:34;0.65;;;0.50;;
28427;SDS011;15662;49.128;8.520;2023-05-10T08:57:03;0.50;;;0.50;;
28427;SDS011;15662;49.128;8.520;2023-05-10T08:59:31;0.57;;;0.45;;
28427;SDS011;15662;49.128;8.520;2023-05-10T09:02:00;0.63;;;0.40;;
28427;SDS011;15662;49.128;8.520;2023-05-10T09:04:29;0.95;;;0.60;;
28427;SDS011;15662;49.128;8.520;2023-05-10T09:06:57;0.40;;;0.40;;
28427;SDS011;15662;49.128;8.520;2023-05-10T09:09:25;0.63;;;0.40;;
28427;SDS011;15662;49.128;8.520;2023-05-10T09:11:54;0.60;;;0.35;;
28427;SDS011;15662;49.128;8.520;2023-05-10T09:14:23;0.55;;;0.52;;
28427;SDS011;15662;49.128;8.520;2023-05-10T09:16:52;0.38;;;0.38;;
28427;SDS011;15662;49.128;8.520;2023-05-10T09:19:22;0.55;;;0.40;;
28427;SDS011;15662;49.128;8.520;2023-05-10T09:21:53;0.50;;;0.50;;
28427;SDS011;15662;49.128;8.520;2023-05-10T09:24:20;0.75;;;0.52;;
28427;SDS011;15662;49.128;8.520;2023-05-10T09:26:53;0.55;;;0.55;;
28427;SDS011;15662;49.128;8.520;2023-05-10T09:29:38;0.50;;;0.50;;
28427;SDS011;15662;49.128;8.520;2023-05-10T09:32:07;0.35;;;0.35;;
28427;SDS011;15662;49.128;8.520;2023-05-10T09:34:37;0.38;;;0.38;;
28427;SDS011;15662;49.128;8.520;2023-05-10T09:37:07;0.45;;;0.45;;
28427;SDS011;15662;49.128;8.520;2023-05-10T09:39:37;0.50;;;0.40;;
28427;SDS011;15662;49.128;8.520;2023-05-10T09:42:06;0.30;;;0.30;;
28427;SDS011;15662;49.128;8.520;2023-05-10T09:44:36;0.40;;;0.40;;
28427;SDS011;15662;49.128;8.520;2023-05-10T09:47:05;0.40;;;0.40;;
28427;SDS011;15662;49.128;8.520;2023-05-10T09:49:33;1.05;;;0.35;;
28427;SDS011;15662;49.128;8.520;2023-05-10T09:52:05;0.45;;;0.45;;
28427;SDS011;15662;49.128;8.520;2023-05-10T09:54:34;0.50;;;0.32;;
28427;SDS011;15662;49.128;8.520;2023-05-10T09:57:03;0.40;;;0.40;;
28427;SDS011;15662;49.128;8.520;2023-05-10T09:59:32;0.45;;;0.30;;
28427;SDS011;15662;49.128;8.520;2023-05-10T10:02:03;0.30;;;0.30;;
28427;SDS011;15662;49.128;8.520;2023-05-10T10:04:31;0.35;;;0.30;;
28427;SDS011;15662;49.128;8.520;2023-05-10T10:07:07;0.70;;;0.30;;
28427;SDS011;15662;49.128;8.520;2023-05-10T10:09:35;0.20;;;0.20;;
28427;SDS011;15662;49.128;8.520;2023-05-10T10:12:03;1.02;;;0.40;;
28427;SDS011;15662;49.128;8.520;2023-05-10T10:14:31;0.40;;;0.40;;
28427;SDS011;15662;49.128;8.520;2023-05-10T10:17:01;0.50;;;0.50;;
28427;SDS011;15662;49.128;8.520;2023-05-10T10:19:36;0.60;;;0.50;;
28427;SDS011;15662;49.128;8.520;2023-05-10T10:22:04;0.90;;;0.50;;
28427;SDS011;15662;49.128;8.520;2023-05-10T10:24:33;0.43;;;0.40;;
28427;SDS011;15662;49.128;8.520;2023-05-10T10:27:13;0.60;;;0.50;;
28427;SDS011;15662;49.128;8.520;2023-05-10T10:35:42;0.43;;;0.43;;
28427;SDS011;15662;49.128;8.520;2023-05-10T10:38:13;0.63;;;0.50;;
28427;SDS011;15662;49.128;8.520;2023-05-10T10:40:41;0.68;;;0.40;;
28427;SDS011;15662;49.128;8.520;2023-05-10T10:48:48;2.25;;;0.45;;
28427;SDS011;15662;49.128;8.520;2023-05-10T10:51:39;0.40;;;0.40;;
28427;SDS011;15662;49.128;8.520;2023-05-10T10:54:11;0.40;;;0.40;;
28427;SDS011;15662;49.128;8.520;2023-05-10T10:56:39;1.55;;;0.40;;
28427;SDS011;15662;49.128;8.520;2023-05-10T10:59:07;0.35;;;0.35;;
28427;SDS011;15662;49.128;8.520;2023-05-10T11:01:35;0.90;;;0.50;;
28427;SDS011;15662;49.128;8.520;2023-05-10T11:04:16;0.38;;;0.38;;
28427;SDS011;15662;49.128;8.520;2023-05-10T11:06:47;0.47;;;0.47;;
28427;SDS011;15662;49.128;8.520;2023-05-10T11:09:15;1.25;;;0.68;;
28427;SDS011;15662;49.128;8.520;2023-05-10T11:11:52;3.42;;;1.15;;
28427;SDS011;15662;49.128;8.520;2023-05-10T11:14:25;1.67;;;1.40;;
28427;SDS011;15662;49.128;8.520;2023-05-10T11:16:54;1.05;;;0.77;;
28427;SDS011;15662;49.128;8.520;2023-05-10T11:19:22;1.55;;;1.00;;
28427;SDS011;15662;49.128;8.520;2023-05-10T11:24:31;1.42;;;0.95;;
28427;SDS011;15662;49.128;8.520;2023-05-10T11:27:02;0.65;;;0.43;;
28427;SDS011;15662;49.128;8.520;2023-05-10T11:29:30;2.28;;;0.70;;
28427;SDS011;15662;49.128;8.520;2023-05-10T11:31:58;0.60;;;0.50;;
28427;SDS011;15662;49.128;8.520;2023-05-10T11:34:30;1.48;;;0.65;;
28427;SDS011;15662;49.128;8.520;2023-05-10T11:37:01;1.30;;;0.60;;
28427;SDS011;15662;49.128;8.520;2023-05-10T11:39:30;1.35;;;0.50;;
28427;SDS011;15662;49.128;8.520;2023-05-10T11:42:00;2.83;;;0.60;;
28427;SDS011;15662;49.128;8.520;2023-05-10T11:44:31;3.28;;;0.60;;
28427;SDS011;15662;49.128;8.520;2023-05-10T11:47:03;0.88;;;0.70;;
28427;SDS011;15662;49.128;8.520;2023-05-10T11:49:32;1.40;;;0.68;;
28427;SDS011;15662;49.128;8.520;2023-05-10T11:52:04;1.55;;;0.70;;
28427;SDS011;15662;49.128;8.520;2023-05-10T11:54:44;2.17;;;0.80;;
28427;SDS011;15662;49.128;8.520;2023-05-10T11:57:26;3.17;;;0.80;;
28427;SDS011;15662;49.128;8.520;2023-05-10T11:59:57;0.85;;;0.65;;
28427;SDS011;15662;49.128;8.520;2023-05-10T12:02:25;0.80;;;0.70;;
28427;SDS011;15662;49.128;8.520;2023-05-10T12:04:53;1.45;;;0.60;;
28427;SDS011;15662;49.128;8.520;2023-05-10T12:07:22;0.60;;;0.60;;
28427;SDS011;15662;49.128;8.520;2023-05-10T12:12:42;2.60;;;0.57;;
28427;SDS011;15662;49.128;8.520;2023-05-10T12:17:49;2.45;;;0.70;;
28427;SDS011;15662;49.128;8.520;2023-05-10T12:20:21;0.80;;;0.60;;
28427;SDS011;15662;49.128;8.520;2023-05-10T12:22:54;1.58;;;0.60;;
28427;SDS011;15662;49.128;8.520;2023-05-10T12:25:29;0.75;;;0.55;;
28427;SDS011;15662;49.128;8.520;2023-05-10T12:28:02;0.50;;;0.43;;
28427;SDS011;15662;49.128;8.520;2023-05-10T12:30:33;2.38;;;0.60;;
28427;SDS011;15662;49.128;8.520;2023-05-10T12:33:12;0.98;;;0.60;;
28427;SDS011;15662;49.128;8.520;2023-05-10T12:35:49;0.68;;;0.68;;
28427;SDS011;15662;49.128;8.520;2023-05-10T12:40:58;1.42;;;0.70;;
28427;SDS011;15662;49.128;8.520;2023-05-10T12:43:32;0.82;;;0.55;;
28427;SDS011;15662;49.128;8.520;2023-05-10T12:46:08;0.60;;;0.60;;
28427;SDS011;15662;49.128;8.520;2023-05-10T12:48:39;1.23;;;0.40;;
28427;SDS011;15662;49.128;8.520;2023-05-10T12:51:08;0.57;;;0.57;;
28427;SDS011;15662;49.128;8.520;2023-05-10T12:53:38;5.18;;;0.80;;
28427;SDS011;15662;49.128;8.520;2023-05-10T12:56:10;3.20;;;0.70;;
28427;SDS011;15662;49.128;8.520;2023-05-10T12:58:38;2.20;;;0.70;;
28427;SDS011;15662;49.128;8.520;2023-05-10T13:01:05;1.25;;;0.75;;
28427;SDS011;15662;49.128;8.520;2023-05-10T13:03:33;4.00;;;0.80;;
28427;SDS011;15662;49.128;8.520;2023-05-10T13:06:01;1.63;;;0.63;;
28427;SDS011;15662;49.128;8.520;2023-05-10T13:08:29;2.72;;;0.88;;
28427;SDS011;15662;49.128;8.520;2023-05-10T13:13:29;1.40;;;0.50;;
28427;SDS011;15662;49.128;8.520;2023-05-10T13:15:57;0.75;;;0.70;;
28427;SDS011;15662;49.128;8.520;2023-05-10T13:18:25;3.35;;;0.60;;
28427;SDS011;15662;49.128;8.520;2023-05-10T13:20:56;0.40;;;0.40;;
28427;SDS011;15662;49.128;8.520;2023-05-10T13:23:26;1.17;;;0.60;;
28427;SDS011;15662;49.128;8.520;2023-05-10T13:25:54;1.33;;;0.60;;
28427;SDS011;15662;49.128;8.520;2023-05-10T13:28:22;0.50;;;0.50;;
28427;SDS011;15662;49.128;8.520;2023-05-10T13:30:49;2.58;;;0.60;;
28427;SDS011;15662;49.128;8.520;2023-05-10T13:33:19;0.60;;;0.60;;
28427;SDS011;15662;49.128;8.520;2023-05-10T13:35:47;0.63;;;0.52;;
28427;SDS011;15662;49.128;8.520;2023-05-10T13:38:14;0.77;;;0.57;;
28427;SDS011;15662;49.128;8.520;2023-05-10T13:40:42;0.82;;;0.50;;
28427;SDS011;15662;49.128;8.520;2023-05-10T13:43:10;1.02;;;0.60;;
28427;SDS011;15662;49.128;8.520;2023-05-10T13:45:38;2.05;;;0.50;;
28427;SDS011;15662;49.128;8.520;2023-05-10T13:48:07;2.50;;;0.52;;
28427;SDS011;15662;49.128;8.520;2023-05-10T13:50:35;1.65;;;0.70;;
28427;SDS011;15662;49.128;8.520;2023-05-10T13:53:03;0.90;;;0.45;;
28427;SDS011;15662;49.128;8.520;2023-05-10T13:55:30;0.50;;;0.50;;
28427;SDS011;15662;49.128;8.520;2023-05-10T13:57:58;0.77;;;0.43;;
28427;SDS011;15662;49.128;8.520;2023-05-10T14:00:26;3.83;;;0.40;;
28427;SDS011;15662;49.128;8.520;2023-05-10T14:02:54;1.30;;;0.40;;
28427;SDS011;15662;49.128;8.520;2023-05-10T14:05:22;0.95;;;0.50;;
28427;SDS011;15662;49.128;8.520;2023-05-10T14:07:54;1.27;;;0.30;;
28427;SDS011;15662;49.128;8.520;2023-05-10T14:10:22;0.30;;;0.30;;
28427;SDS011;15662;49.128;8.520;2023-05-10T14:12:50;0.20;;;0.20;;
28427;SDS011;15662;49.128;8.520;2023-05-10T14:15:17;0.30;;;0.30;;
28427;SDS011;15662;49.128;8.520;2023-05-10T14:17:45;0.73;;;0.40;;
28427;SDS011;15662;49.128;8.520;2023-05-10T14:20:13;1.75;;;0.30;;
28427;SDS011;15662;49.128;8.520;2023-05-10T14:22:41;0.20;;;0.20;;
28427;SDS011;15662;49.128;8.520;2023-05-10T14:25:09;1.13;;;0.40;;
28427;SDS011;15662;49.128;8.520;2023-05-10T14:27:37;0.30;;;0.30;;
28427;SDS011;15662;49.128;8.520;2023-05-10T14:30:07;1.48;;;0.35;;
28427;SDS011;15662;49.128;8.520;2023-05-10T14:32:35;1.60;;;0.40;;
28427;SDS011;15662;49.128;8.520;2023-05-10T14:35:04;0.98;;;0.43;;
28427;SDS011;15662;49.128;8.520;2023-05-10T14:37:33;1.58;;;0.40;;
28427;SDS011;15662;49.128;8.520;2023-05-10T14:40:01;0.70;;;0.70;;
28427;SDS011;15662;49.128;8.520;2023-05-10T14:42:28;0.28;;;0.28;;
28427;SDS011;15662;49.128;8.520;2023-05-10T14:44:56;1.75;;;0.30;;
28427;SDS011;15662;49.128;8.520;2023-05-10T14:47:24;1.50;;;0.35;;
28427;SDS011;15662;49.128;8.520;2023-05-10T14:49:52;0.30;;;0.30;;
28427;SDS011;15662;49.128;8.520;2023-05-10T14:52:21;0.35;;;0.30;;
28427;SDS011;15662;49.128;8.520;2023-05-10T14:54:49;0.25;;;0.25;;
28427;SDS011;15662;49.128;8.520;2023-05-10T14:57:17;2.05;;;0.30;;
28427;SDS011;15662;49.128;8.520;2023-05-10T14:59:45;0.20;;;0.20;;
28427;SDS011;15662;49.128;8.520;2023-05-10T15:02:12;0.65;;;0.38;;
28427;SDS011;15662;49.128;8.520;2023-05-10T15:04:41;0.60;;;0.40;;
28427;SDS011;15662;49.128;8.520;2023-05-10T15:07:09;0.40;;;0.40;;
28427;SDS011;15662;49.128;8.520;2023-05-10T15:09:47;0.20;;;0.20;;
28427;SDS011;15662;49.128;8.520;2023-05-10T15:12:15;2.15;;;0.40;;
28427;SDS011;15662;49.128;8.520;2023-05-10T15:14:43;0.20;;;0.20;;
28427;SDS011;15662;49.128;8.520;2023-05-10T15:17:11;0.57;;;0.20;;
28427;SDS011;15662;49.128;8.520;2023-05-10T15:19:39;0.57;;;0.30;;
28427;SDS011;15662;49.128;8.520;2023-05-10T15:22:07;0.75;;;0.40;;
28427;SDS011;15662;49.128;8.520;2023-05-10T15:24:34;0.82;;;0.30;;
28427;SDS011;15662;49.128;8.520;2023-05-10T15:27:02;1.45;;;0.40;;
28427;SDS011;15662;49.128;8.520;2023-05-10T15:29:30;0.35;;;0.35;;
28427;SDS011;15662;49.128;8.520;2023-05-10T15:31:58;0.43;;;0.43;;
28427;SDS011;15662;49.128;8.520;2023-05-10T15:34:26;0.93;;;0.35;;
28427;SDS011;15662;49.128;8.520;2023-05-10T15:36:55;0.40;;;0.30;;
28427;SDS011;15662;49.128;8.520;2023-05-10T15:39:23;1.67;;;0.40;;
28427;SDS011;15662;49.128;8.520;2023-05-10T15:41:51;0.68;;;0.40;;
28427;SDS011;15662;49.128;8.520;2023-05-10T15:44:19;0.30;;;0.30;;
28427;SDS011;15662;49.128;8.520;2023-05-10T15:46:46;1.45;;;0.20;;
28427;SDS011;15662;49.128;8.520;2023-05-10T15:49:14;0.80;;;0.30;;
28427;SDS011;15662;49.128;8.520;2023-05-10T15:51:42;1.00;;;0.30;;
28427;SDS011;15662;49.128;8.520;2023-05-10T15:54:10;0.98;;;0.75;;
28427;SDS011;15662;49.128;8.520;2023-05-10T15:56:37;0.55;;;0.40;;